Madison, AL (35756)

12:22 PM CDT on March 27, 2017 (GMT -0500)
Taylors Crossing | | Change Station

Elev 650 ft 34.70 °N, 86.79 °W | Updated 12 seconds ago

Overcast
Overcast
73.8 °F
Feels Like 76 °F
N
5.0
Wind Variable Wind from SSW

Today
High -- | Low -- °F
--% Chance of Precip.
Yesterday
High -- | Low -- °F
Precip. -- in
Pressure 29.97 in
Visibility 10.0 miles
Clouds Few 2800 ft
Mostly Cloudy 17000 ft
Overcast 25000 ft
Heat Index 76 °F
Dew Point 63 °F
Humidity 70%
Rainfall 0.00 in
Snow Depth Not available.
6:40 AM 7:04 PM
Waning Crescent, 0% visible
METAR KHSV 271653Z 20011KT 10SM FEW028 BKN170 OVC250 23/17 A2999 RMK AO2 SLP149 T02330172 $
Pressure 29.97 in
Visibility 10.0 miles
Clouds Few 2800 ft
Mostly Cloudy 17000 ft
Overcast 25000 ft
Heat Index 76 °F
Dew Point 63 °F
Humidity 70%
Rainfall 0.00 in
Snow Depth Not available.
6:40 AM 7:04 PM
Waning Crescent, 0% visible
METAR KHSV 271653Z 20011KT 10SM FEW028 BKN170 OVC250 23/17 A2999 RMK AO2 SLP149 T02330172 $

Get Severe Weather Alerts

Thanks for signing up!

Be on the lookout for a verification email in your inbox.

You'll start receiving the daily forecast at 8 AM.

×

10-Day Weather Forecast

Almanac

Astronomy

Mar. 27, 2017 Rise Set
Actual Time
Civil Twilight
Nautical Twilight
Astronomical Twilight
Moon
Length of Visible Light
Length of Day
Tomorrow will be .
, % of the Moon is Illuminated

Today's Extremes

State Highs State Lows

Community

WunderPhotos

Upload Photos

1,962,540 photos uploaded!

WunderBlog® & News

Nearby

Air Quality

  Air Quality AQ Index Pollutant
Not available.

Snow Depth

Station Depth Elevation

Earthquake Activity

City Distance Mag. Time & Date
Minimum magnitude displayed is 2.5.

Earthquake Activity

City Distance Mag. Time & Date
Minimum magnitude displayed is 2.5.

Coastal Water Temperatures

Place Temperature

Stations

Nearby Weather Stations

Station Location Temp. Windchill Dew Point Humidity Wind Precip. Elev Updated Type
                   

Watches & Warnings

There are currently no watches in effect.